sensor_id;sensor_type;location;lat;lon;timestamp;temperature;humidity
20574;DHT22;10445;50.216;7.912;2023-12-07T00:00:46;0.40;99.90
20574;DHT22;10445;50.216;7.912;2023-12-07T00:03:14;0.40;99.90
20574;DHT22;10445;50.216;7.912;2023-12-07T00:05:43;0.40;99.90
20574;DHT22;10445;50.216;7.912;2023-12-07T00:08:11;0.40;99.90
20574;DHT22;10445;50.216;7.912;2023-12-07T00:10:40;0.40;99.90
20574;DHT22;10445;50.216;7.912;2023-12-07T00:13:08;0.40;99.90
20574;DHT22;10445;50.216;7.912;2023-12-07T00:15:37;0.40;99.90
20574;DHT22;10445;50.216;7.912;2023-12-07T00:18:07;0.40;99.90
20574;DHT22;10445;50.216;7.912;2023-12-07T00:20:35;0.50;99.90
20574;DHT22;10445;50.216;7.912;2023-12-07T00:23:04;0.40;99.90
20574;DHT22;10445;50.216;7.912;2023-12-07T00:25:32;0.50;99.90
20574;DHT22;10445;50.216;7.912;2023-12-07T00:28:01;0.50;99.90
20574;DHT22;10445;50.216;7.912;2023-12-07T00:30:31;0.60;99.90
20574;DHT22;10445;50.216;7.912;2023-12-07T00:33:00;0.60;99.90
20574;DHT22;10445;50.216;7.912;2023-12-07T00:35:30;0.60;99.90
20574;DHT22;10445;50.216;7.912;2023-12-07T00:37:58;0.50;99.90
20574;DHT22;10445;50.216;7.912;2023-12-07T00:40:27;0.40;99.90
20574;DHT22;10445;50.216;7.912;2023-12-07T00:42:55;0.40;99.90
20574;DHT22;10445;50.216;7.912;2023-12-07T00:45:24;0.40;99.90
20574;DHT22;10445;50.216;7.912;2023-12-07T00:47:52;0.40;99.90
20574;DHT22;10445;50.216;7.912;2023-12-07T00:50:20;0.50;99.90
20574;DHT22;10445;50.216;7.912;2023-12-07T00:52:50;0.60;99.90
20574;DHT22;10445;50.216;7.912;2023-12-07T00:55:18;0.50;99.90
20574;DHT22;10445;50.216;7.912;2023-12-07T00:57:47;0.50;99.90
20574;DHT22;10445;50.216;7.912;2023-12-07T01:00:15;0.40;99.90
20574;DHT22;10445;50.216;7.912;2023-12-07T01:02:44;0.40;99.90
20574;DHT22;10445;50.216;7.912;2023-12-07T01:05:12;0.30;99.90
20574;DHT22;10445;50.216;7.912;2023-12-07T01:07:41;0.30;99.90
20574;DHT22;10445;50.216;7.912;2023-12-07T01:10:11;0.20;99.90
20574;DHT22;10445;50.216;7.912;2023-12-07T01:12:39;0.20;99.90
20574;DHT22;10445;50.216;7.912;2023-12-07T01:15:08;0.10;99.90
20574;DHT22;10445;50.216;7.912;2023-12-07T01:17:36;0.10;99.90
20574;DHT22;10445;50.216;7.912;2023-12-07T01:20:06;0.10;99.90
20574;DHT22;10445;50.216;7.912;2023-12-07T01:22:39;0.10;99.90
20574;DHT22;10445;50.216;7.912;2023-12-07T01:25:08;0.20;99.90
20574;DHT22;10445;50.216;7.912;2023-12-07T01:27:38;0.20;99.90
20574;DHT22;10445;50.216;7.912;2023-12-07T01:30:08;0.40;99.90
20574;DHT22;10445;50.216;7.912;2023-12-07T01:32:36;0.40;99.90
20574;DHT22;10445;50.216;7.912;2023-12-07T01:35:06;0.40;99.90
20574;DHT22;10445;50.216;7.912;2023-12-07T01:37:34;0.40;99.90
20574;DHT22;10445;50.216;7.912;2023-12-07T01:40:04;0.50;99.90
20574;DHT22;10445;50.216;7.912;2023-12-07T01:42:38;0.60;99.90
20574;DHT22;10445;50.216;7.912;2023-12-07T01:45:07;0.60;99.90
20574;DHT22;10445;50.216;7.912;2023-12-07T01:47:36;0.60;99.90
20574;DHT22;10445;50.216;7.912;2023-12-07T01:50:06;0.60;99.90
20574;DHT22;10445;50.216;7.912;2023-12-07T01:52:38;0.60;99.90
20574;DHT22;10445;50.216;7.912;2023-12-07T01:55:10;0.70;99.90
20574;DHT22;10445;50.216;7.912;2023-12-07T01:57:40;0.60;99.90
20574;DHT22;10445;50.216;7.912;2023-12-07T02:00:10;0.60;99.90
20574;DHT22;10445;50.216;7.912;2023-12-07T02:02:39;0.60;99.90
20574;DHT22;10445;50.216;7.912;2023-12-07T02:05:07;0.50;99.90
20574;DHT22;10445;50.216;7.912;2023-12-07T02:07:36;0.50;99.90
20574;DHT22;10445;50.216;7.912;2023-12-07T02:10:05;0.40;99.90
20574;DHT22;10445;50.216;7.912;2023-12-07T02:12:35;0.40;99.90
20574;DHT22;10445;50.216;7.912;2023-12-07T02:15:05;0.40;99.90
20574;DHT22;10445;50.216;7.912;2023-12-07T02:17:40;0.30;99.90
20574;DHT22;10445;50.216;7.912;2023-12-07T02:20:16;0.30;99.90
20574;DHT22;10445;50.216;7.912;2023-12-07T02:22:49;0.20;99.90
20574;DHT22;10445;50.216;7.912;2023-12-07T02:25:25;0.30;99.90
20574;DHT22;10445;50.216;7.912;2023-12-07T02:27:55;0.30;99.90
20574;DHT22;10445;50.216;7.912;2023-12-07T02:30:24;0.30;99.90
20574;DHT22;10445;50.216;7.912;2023-12-07T02:32:52;0.30;99.90
20574;DHT22;10445;50.216;7.912;2023-12-07T02:35:21;0.20;99.90
20574;DHT22;10445;50.216;7.912;2023-12-07T02:37:50;0.30;99.90
20574;DHT22;10445;50.216;7.912;2023-12-07T02:40:22;0.20;99.90
20574;DHT22;10445;50.216;7.912;2023-12-07T02:42:53;0.20;99.90
20574;DHT22;10445;50.216;7.912;2023-12-07T02:45:23;0.20;99.90
20574;DHT22;10445;50.216;7.912;2023-12-07T02:47:52;0.20;99.90
20574;DHT22;10445;50.216;7.912;2023-12-07T02:50:21;0.10;99.90
20574;DHT22;10445;50.216;7.912;2023-12-07T02:52:49;0.10;99.90
20574;DHT22;10445;50.216;7.912;2023-12-07T02:55:18;0.10;99.90
20574;DHT22;10445;50.216;7.912;2023-12-07T02:57:46;0.10;99.90
20574;DHT22;10445;50.216;7.912;2023-12-07T03:00:15;0.10;99.90
20574;DHT22;10445;50.216;7.912;2023-12-07T03:02:45;0.10;99.90
20574;DHT22;10445;50.216;7.912;2023-12-07T03:05:14;0.00;99.90
20574;DHT22;10445;50.216;7.912;2023-12-07T03:07:43;0.00;99.90
20574;DHT22;10445;50.216;7.912;2023-12-07T03:10:11;0.00;99.90
20574;DHT22;10445;50.216;7.912;2023-12-07T03:12:40;0.00;99.90
20574;DHT22;10445;50.216;7.912;2023-12-07T03:15:08;0.00;99.90
20574;DHT22;10445;50.216;7.912;2023-12-07T03:17:37;-0.10;99.90
20574;DHT22;10445;50.216;7.912;2023-12-07T03:20:08;-0.10;99.90
20574;DHT22;10445;50.216;7.912;2023-12-07T03:22:37;-0.10;99.90
20574;DHT22;10445;50.216;7.912;2023-12-07T03:25:07;-0.10;99.90
20574;DHT22;10445;50.216;7.912;2023-12-07T03:27:35;-0.10;99.90
20574;DHT22;10445;50.216;7.912;2023-12-07T03:30:05;-0.10;99.90
20574;DHT22;10445;50.216;7.912;2023-12-07T03:32:34;0.00;99.90
20574;DHT22;10445;50.216;7.912;2023-12-07T03:35:02;0.00;99.90
20574;DHT22;10445;50.216;7.912;2023-12-07T03:37:32;0.00;99.90
20574;DHT22;10445;50.216;7.912;2023-12-07T03:40:00;0.10;99.90
20574;DHT22;10445;50.216;7.912;2023-12-07T03:42:31;0.10;99.90
20574;DHT22;10445;50.216;7.912;2023-12-07T03:45:20;0.10;99.90
20574;DHT22;10445;50.216;7.912;2023-12-07T03:47:48;0.20;99.90
20574;DHT22;10445;50.216;7.912;2023-12-07T03:50:17;0.20;99.90
20574;DHT22;10445;50.216;7.912;2023-12-07T03:52:47;0.30;99.90
20574;DHT22;10445;50.216;7.912;2023-12-07T03:55:15;0.50;99.90
20574;DHT22;10445;50.216;7.912;2023-12-07T03:57:44;0.40;99.90
20574;DHT22;10445;50.216;7.912;2023-12-07T04:00:13;0.40;99.90
20574;DHT22;10445;50.216;7.912;2023-12-07T04:02:42;0.40;99.90
20574;DHT22;10445;50.216;7.912;2023-12-07T04:05:10;0.50;99.90
20574;DHT22;10445;50.216;7.912;2023-12-07T04:07:39;0.40;99.90
20574;DHT22;10445;50.216;7.912;2023-12-07T04:10:10;0.40;99.90
20574;DHT22;10445;50.216;7.912;2023-12-07T04:12:39;0.50;99.90
20574;DHT22;10445;50.216;7.912;2023-12-07T04:15:08;0.40;99.90
20574;DHT22;10445;50.216;7.912;2023-12-07T04:17:37;0.50;99.90
20574;DHT22;10445;50.216;7.912;2023-12-07T04:20:06;0.40;99.90
20574;DHT22;10445;50.216;7.912;2023-12-07T04:22:35;0.40;99.90
20574;DHT22;10445;50.216;7.912;2023-12-07T04:25:04;0.50;99.90
20574;DHT22;10445;50.216;7.912;2023-12-07T04:27:34;0.50;99.90
20574;DHT22;10445;50.216;7.912;2023-12-07T04:30:03;0.40;99.90
20574;DHT22;10445;50.216;7.912;2023-12-07T04:32:32;0.50;99.90
20574;DHT22;10445;50.216;7.912;2023-12-07T04:35:00;0.50;99.90
20574;DHT22;10445;50.216;7.912;2023-12-07T04:37:28;0.40;99.90
20574;DHT22;10445;50.216;7.912;2023-12-07T04:39:57;0.40;99.90
20574;DHT22;10445;50.216;7.912;2023-12-07T04:42:25;0.30;99.90
20574;DHT22;10445;50.216;7.912;2023-12-07T04:44:55;0.30;99.90
20574;DHT22;10445;50.216;7.912;2023-12-07T04:47:24;0.30;99.90
20574;DHT22;10445;50.216;7.912;2023-12-07T04:49:52;0.20;99.90
20574;DHT22;10445;50.216;7.912;2023-12-07T04:52:21;0.20;99.90
20574;DHT22;10445;50.216;7.912;2023-12-07T04:54:49;0.30;99.90
20574;DHT22;10445;50.216;7.912;2023-12-07T04:57:17;0.20;99.90
20574;DHT22;10445;50.216;7.912;2023-12-07T04:59:46;0.20;99.90
20574;DHT22;10445;50.216;7.912;2023-12-07T05:02:17;0.30;99.90
20574;DHT22;10445;50.216;7.912;2023-12-07T05:04:45;0.30;99.90
20574;DHT22;10445;50.216;7.912;2023-12-07T05:07:14;0.30;99.90
20574;DHT22;10445;50.216;7.912;2023-12-07T05:09:42;0.30;99.90
20574;DHT22;10445;50.216;7.912;2023-12-07T05:12:11;0.30;99.90
20574;DHT22;10445;50.216;7.912;2023-12-07T05:14:39;0.30;99.90
20574;DHT22;10445;50.216;7.912;2023-12-07T05:17:08;0.30;99.90
20574;DHT22;10445;50.216;7.912;2023-12-07T05:19:38;0.30;99.90
20574;DHT22;10445;50.216;7.912;2023-12-07T05:22:06;0.20;99.90
20574;DHT22;10445;50.216;7.912;2023-12-07T05:24:35;0.20;99.90
20574;DHT22;10445;50.216;7.912;2023-12-07T05:27:04;0.20;99.90
20574;DHT22;10445;50.216;7.912;2023-12-07T05:29:35;0.10;99.90
20574;DHT22;10445;50.216;7.912;2023-12-07T05:32:07;0.10;99.90
20574;DHT22;10445;50.216;7.912;2023-12-07T05:34:35;0.20;99.90
20574;DHT22;10445;50.216;7.912;2023-12-07T05:37:05;0.20;99.90
20574;DHT22;10445;50.216;7.912;2023-12-07T05:39:34;0.30;99.90
20574;DHT22;10445;50.216;7.912;2023-12-07T05:42:03;0.20;99.90
20574;DHT22;10445;50.216;7.912;2023-12-07T05:44:32;0.20;99.90
20574;DHT22;10445;50.216;7.912;2023-12-07T05:47:00;0.20;99.90
20574;DHT22;10445;50.216;7.912;2023-12-07T05:49:29;0.20;99.90
20574;DHT22;10445;50.216;7.912;2023-12-07T05:51:57;0.20;99.90
20574;DHT22;10445;50.216;7.912;2023-12-07T05:54:27;0.20;99.90
20574;DHT22;10445;50.216;7.912;2023-12-07T05:56:56;0.20;99.90
20574;DHT22;10445;50.216;7.912;2023-12-07T05:59:24;0.20;99.90
20574;DHT22;10445;50.216;7.912;2023-12-07T06:01:53;0.20;99.90
20574;DHT22;10445;50.216;7.912;2023-12-07T06:04:21;0.20;99.90
20574;DHT22;10445;50.216;7.912;2023-12-07T06:06:50;0.10;99.90
20574;DHT22;10445;50.216;7.912;2023-12-07T06:09:18;0.10;99.90
20574;DHT22;10445;50.216;7.912;2023-12-07T06:11:49;0.10;99.90
20574;DHT22;10445;50.216;7.912;2023-12-07T06:14:17;0.10;99.90
20574;DHT22;10445;50.216;7.912;2023-12-07T06:16:46;0.10;99.90
20574;DHT22;10445;50.216;7.912;2023-12-07T06:19:14;0.10;99.90
20574;DHT22;10445;50.216;7.912;2023-12-07T06:21:43;0.10;99.90
20574;DHT22;10445;50.216;7.912;2023-12-07T06:24:12;0.20;99.90
20574;DHT22;10445;50.216;7.912;2023-12-07T06:26:41;0.20;99.90
20574;DHT22;10445;50.216;7.912;2023-12-07T06:29:11;0.20;99.90
20574;DHT22;10445;50.216;7.912;2023-12-07T06:31:43;0.20;99.90
20574;DHT22;10445;50.216;7.912;2023-12-07T06:34:11;0.20;99.90
20574;DHT22;10445;50.216;7.912;2023-12-07T06:36:40;0.20;99.90
20574;DHT22;10445;50.216;7.912;2023-12-07T06:39:09;0.20;99.90
20574;DHT22;10445;50.216;7.912;2023-12-07T06:41:37;0.20;99.90
20574;DHT22;10445;50.216;7.912;2023-12-07T06:44:06;0.20;99.90
20574;DHT22;10445;50.216;7.912;2023-12-07T06:46:36;0.20;99.90
20574;DHT22;10445;50.216;7.912;2023-12-07T06:49:06;0.20;99.90
20574;DHT22;10445;50.216;7.912;2023-12-07T06:51:35;0.30;99.90
20574;DHT22;10445;50.216;7.912;2023-12-07T06:54:03;0.20;99.90
20574;DHT22;10445;50.216;7.912;2023-12-07T06:56:32;0.20;99.90
20574;DHT22;10445;50.216;7.912;2023-12-07T06:59:05;0.20;99.90
20574;DHT22;10445;50.216;7.912;2023-12-07T07:01:36;0.10;99.90
20574;DHT22;10445;50.216;7.912;2023-12-07T07:04:05;0.10;99.90
20574;DHT22;10445;50.216;7.912;2023-12-07T07:06:36;0.10;99.90
20574;DHT22;10445;50.216;7.912;2023-12-07T07:09:05;0.10;99.90
20574;DHT22;10445;50.216;7.912;2023-12-07T07:11:34;0.00;99.90
20574;DHT22;10445;50.216;7.912;2023-12-07T07:14:04;0.00;99.90
20574;DHT22;10445;50.216;7.912;2023-12-07T07:16:32;0.00;99.90
20574;DHT22;10445;50.216;7.912;2023-12-07T07:19:02;0.10;99.90
20574;DHT22;10445;50.216;7.912;2023-12-07T07:21:31;-0.10;99.90
20574;DHT22;10445;50.216;7.912;2023-12-07T07:24:00;-0.10;99.90
20574;DHT22;10445;50.216;7.912;2023-12-07T07:26:32;-0.10;99.90
20574;DHT22;10445;50.216;7.912;2023-12-07T07:29:01;-0.30;99.90
20574;DHT22;10445;50.216;7.912;2023-12-07T07:31:30;-0.30;99.90
20574;DHT22;10445;50.216;7.912;2023-12-07T07:33:59;-0.30;99.90
20574;DHT22;10445;50.216;7.912;2023-12-07T07:36:30;-0.30;99.90
20574;DHT22;10445;50.216;7.912;2023-12-07T07:38:59;-0.40;99.90
20574;DHT22;10445;50.216;7.912;2023-12-07T07:41:27;-0.40;99.90
20574;DHT22;10445;50.216;7.912;2023-12-07T07:43:56;-0.40;99.90
20574;DHT22;10445;50.216;7.912;2023-12-07T07:46:26;-0.30;99.90
20574;DHT22;10445;50.216;7.912;2023-12-07T07:48:55;-0.30;99.90
20574;DHT22;10445;50.216;7.912;2023-12-07T07:51:23;-0.30;99.90
20574;DHT22;10445;50.216;7.912;2023-12-07T07:53:53;-0.10;99.90
20574;DHT22;10445;50.216;7.912;2023-12-07T07:56:24;-0.10;99.90
20574;DHT22;10445;50.216;7.912;2023-12-07T07:58:53;-0.10;99.90
20574;DHT22;10445;50.216;7.912;2023-12-07T08:01:21;-0.10;99.90
20574;DHT22;10445;50.216;7.912;2023-12-07T08:03:50;-0.10;99.90
20574;DHT22;10445;50.216;7.912;2023-12-07T08:06:18;-0.10;99.90
20574;DHT22;10445;50.216;7.912;2023-12-07T08:08:47;0.00;99.90
20574;DHT22;10445;50.216;7.912;2023-12-07T08:11:17;0.00;99.90
20574;DHT22;10445;50.216;7.912;2023-12-07T08:13:46;0.00;99.90
20574;DHT22;10445;50.216;7.912;2023-12-07T08:16:15;0.00;99.90
20574;DHT22;10445;50.216;7.912;2023-12-07T08:18:43;0.00;99.90
20574;DHT22;10445;50.216;7.912;2023-12-07T08:21:19;0.00;99.90
20574;DHT22;10445;50.216;7.912;2023-12-07T08:23:53;0.00;99.90
20574;DHT22;10445;50.216;7.912;2023-12-07T08:26:24;0.20;99.90
20574;DHT22;10445;50.216;7.912;2023-12-07T08:28:55;0.30;99.90
20574;DHT22;10445;50.216;7.912;2023-12-07T08:31:24;0.50;99.90
20574;DHT22;10445;50.216;7.912;2023-12-07T08:33:53;0.50;99.90
20574;DHT22;10445;50.216;7.912;2023-12-07T08:36:21;0.70;99.90
20574;DHT22;10445;50.216;7.912;2023-12-07T08:38:51;1.20;99.90
20574;DHT22;10445;50.216;7.912;2023-12-07T08:41:19;1.70;99.90
20574;DHT22;10445;50.216;7.912;2023-12-07T08:43:50;2.00;99.90
20574;DHT22;10445;50.216;7.912;2023-12-07T08:46:18;2.20;92.60
20574;DHT22;10445;50.216;7.912;2023-12-07T08:48:47;2.10;87.70
20574;DHT22;10445;50.216;7.912;2023-12-07T08:51:15;2.30;88.60
20574;DHT22;10445;50.216;7.912;2023-12-07T08:53:44;2.40;87.00
20574;DHT22;10445;50.216;7.912;2023-12-07T08:56:18;2.40;81.40
20574;DHT22;10445;50.216;7.912;2023-12-07T08:58:46;2.50;82.40
20574;DHT22;10445;50.216;7.912;2023-12-07T09:01:16;2.80;81.60
20574;DHT22;10445;50.216;7.912;2023-12-07T09:03:58;2.80;73.60
20574;DHT22;10445;50.216;7.912;2023-12-07T09:06:27;2.60;60.70
20574;DHT22;10445;50.216;7.912;2023-12-07T09:08:56;2.20;65.50
20574;DHT22;10445;50.216;7.912;2023-12-07T09:11:24;1.90;66.70
20574;DHT22;10445;50.216;7.912;2023-12-07T09:13:53;1.60;74.70
20574;DHT22;10445;50.216;7.912;2023-12-07T09:16:22;1.50;78.60
20574;DHT22;10445;50.216;7.912;2023-12-07T09:18:51;1.40;82.70
20574;DHT22;10445;50.216;7.912;2023-12-07T09:21:20;1.40;84.40
20574;DHT22;10445;50.216;7.912;2023-12-07T09:23:49;1.40;85.50
20574;DHT22;10445;50.216;7.912;2023-12-07T09:26:18;1.40;85.80
20574;DHT22;10445;50.216;7.912;2023-12-07T09:28:47;1.40;86.00
20574;DHT22;10445;50.216;7.912;2023-12-07T09:31:15;1.40;86.80
20574;DHT22;10445;50.216;7.912;2023-12-07T09:33:45;1.30;87.60
20574;DHT22;10445;50.216;7.912;2023-12-07T09:36:16;1.30;89.50
20574;DHT22;10445;50.216;7.912;2023-12-07T09:38:46;1.40;92.10
20574;DHT22;10445;50.216;7.912;2023-12-07T09:41:13;1.60;92.50
20574;DHT22;10445;50.216;7.912;2023-12-07T09:43:42;1.60;90.30
20574;DHT22;10445;50.216;7.912;2023-12-07T09:46:11;1.60;88.70
20574;DHT22;10445;50.216;7.912;2023-12-07T09:48:43;1.50;87.20
20574;DHT22;10445;50.216;7.912;2023-12-07T09:51:15;1.30;88.00
20574;DHT22;10445;50.216;7.912;2023-12-07T09:53:45;1.20;91.30
20574;DHT22;10445;50.216;7.912;2023-12-07T09:56:17;1.10;93.40
20574;DHT22;10445;50.216;7.912;2023-12-07T09:58:46;1.00;95.50
20574;DHT22;10445;50.216;7.912;2023-12-07T10:01:17;1.00;98.30
20574;DHT22;10445;50.216;7.912;2023-12-07T10:03:46;1.00;99.10
20574;DHT22;10445;50.216;7.912;2023-12-07T10:06:17;1.10;99.90
20574;DHT22;10445;50.216;7.912;2023-12-07T10:08:45;1.00;99.30
20574;DHT22;10445;50.216;7.912;2023-12-07T10:11:14;1.10;99.90
20574;DHT22;10445;50.216;7.912;2023-12-07T10:13:43;1.20;99.90
20574;DHT22;10445;50.216;7.912;2023-12-07T10:16:13;1.30;99.90
20574;DHT22;10445;50.216;7.912;2023-12-07T10:18:42;1.60;99.90
20574;DHT22;10445;50.216;7.912;2023-12-07T10:21:12;1.70;98.70
20574;DHT22;10445;50.216;7.912;2023-12-07T10:24:04;1.80;94.70
20574;DHT22;10445;50.216;7.912;2023-12-07T10:26:33;2.00;90.80
20574;DHT22;10445;50.216;7.912;2023-12-07T10:29:05;2.30;86.10
20574;DHT22;10445;50.216;7.912;2023-12-07T10:31:40;2.50;80.50
20574;DHT22;10445;50.216;7.912;2023-12-07T10:34:11;2.70;74.50
20574;DHT22;10445;50.216;7.912;2023-12-07T10:36:39;3.00;74.80
20574;DHT22;10445;50.216;7.912;2023-12-07T10:39:11;3.30;68.80
20574;DHT22;10445;50.216;7.912;2023-12-07T10:41:47;3.70;63.20
20574;DHT22;10445;50.216;7.912;2023-12-07T10:44:19;4.10;53.00
20574;DHT22;10445;50.216;7.912;2023-12-07T10:46:50;4.80;44.10
20574;DHT22;10445;50.216;7.912;2023-12-07T10:49:21;5.60;28.00
20574;DHT22;10445;50.216;7.912;2023-12-07T10:52:06;6.10;23.40
20574;DHT22;10445;50.216;7.912;2023-12-07T10:54:41;6.60;17.20
20574;DHT22;10445;50.216;7.912;2023-12-07T10:57:11;7.30;7.10
20574;DHT22;10445;50.216;7.912;2023-12-07T10:59:43;7.00;1.00
20574;DHT22;10445;50.216;7.912;2023-12-07T11:02:13;5.80;6.50
20574;DHT22;10445;50.216;7.912;2023-12-07T11:04:45;4.80;17.70
20574;DHT22;10445;50.216;7.912;2023-12-07T11:07:17;3.90;33.60
20574;DHT22;10445;50.216;7.912;2023-12-07T11:09:57;3.40;45.10
20574;DHT22;10445;50.216;7.912;2023-12-07T11:12:32;3.10;55.90
20574;DHT22;10445;50.216;7.912;2023-12-07T11:15:02;2.80;63.20
20574;DHT22;10445;50.216;7.912;2023-12-07T11:17:47;2.70;66.90
20574;DHT22;10445;50.216;7.912;2023-12-07T11:20:21;2.70;66.90
20574;DHT22;10445;50.216;7.912;2023-12-07T11:22:50;2.60;69.40
20574;DHT22;10445;50.216;7.912;2023-12-07T11:25:20;2.60;71.90
20574;DHT22;10445;50.216;7.912;2023-12-07T11:28:00;2.60;71.40
20574;DHT22;10445;50.216;7.912;2023-12-07T11:30:31;2.60;70.90
20574;DHT22;10445;50.216;7.912;2023-12-07T11:33:00;2.60;72.40
20574;DHT22;10445;50.216;7.912;2023-12-07T11:35:29;2.60;74.10
20574;DHT22;10445;50.216;7.912;2023-12-07T11:38:05;2.70;76.60
20574;DHT22;10445;50.216;7.912;2023-12-07T11:40:40;2.70;75.90
20574;DHT22;10445;50.216;7.912;2023-12-07T11:43:17;2.60;71.30
20574;DHT22;10445;50.216;7.912;2023-12-07T11:45:48;2.60;67.00
20574;DHT22;10445;50.216;7.912;2023-12-07T11:48:17;2.60;70.50
20574;DHT22;10445;50.216;7.912;2023-12-07T11:51:08;2.60;72.30
20574;DHT22;10445;50.216;7.912;2023-12-07T11:53:38;2.60;75.30
20574;DHT22;10445;50.216;7.912;2023-12-07T11:56:09;2.60;75.30
20574;DHT22;10445;50.216;7.912;2023-12-07T11:58:38;2.70;77.40
20574;DHT22;10445;50.216;7.912;2023-12-07T12:01:08;2.70;76.90
20574;DHT22;10445;50.216;7.912;2023-12-07T12:03:37;2.70;77.80
20574;DHT22;10445;50.216;7.912;2023-12-07T12:06:06;2.60;74.20
20574;DHT22;10445;50.216;7.912;2023-12-07T12:08:40;2.70;75.80
20574;DHT22;10445;50.216;7.912;2023-12-07T12:11:11;2.60;75.90
20574;DHT22;10445;50.216;7.912;2023-12-07T12:13:40;2.60;69.70
20574;DHT22;10445;50.216;7.912;2023-12-07T12:16:09;2.60;72.00
20574;DHT22;10445;50.216;7.912;2023-12-07T12:18:37;2.50;71.70
20574;DHT22;10445;50.216;7.912;2023-12-07T12:21:07;2.50;68.50
20574;DHT22;10445;50.216;7.912;2023-12-07T12:23:37;2.50;76.30
20574;DHT22;10445;50.216;7.912;2023-12-07T12:26:07;2.40;75.00
20574;DHT22;10445;50.216;7.912;2023-12-07T12:28:40;2.40;76.60
20574;DHT22;10445;50.216;7.912;2023-12-07T12:31:11;2.30;78.80
20574;DHT22;10445;50.216;7.912;2023-12-07T12:33:40;2.30;78.70
20574;DHT22;10445;50.216;7.912;2023-12-07T12:36:09;2.30;81.00
20574;DHT22;10445;50.216;7.912;2023-12-07T12:38:38;2.20;82.40
20574;DHT22;10445;50.216;7.912;2023-12-07T12:41:11;2.00;82.80
20574;DHT22;10445;50.216;7.912;2023-12-07T12:43:42;2.00;84.30
20574;DHT22;10445;50.216;7.912;2023-12-07T12:46:12;2.00;84.80
20574;DHT22;10445;50.216;7.912;2023-12-07T12:48:55;2.00;84.10
20574;DHT22;10445;50.216;7.912;2023-12-07T12:51:25;1.90;82.60
20574;DHT22;10445;50.216;7.912;2023-12-07T12:53:55;1.90;84.10
20574;DHT22;10445;50.216;7.912;2023-12-07T12:56:26;1.80;84.70
20574;DHT22;10445;50.216;7.912;2023-12-07T12:58:57;1.70;86.40
20574;DHT22;10445;50.216;7.912;2023-12-07T13:01:32;1.60;87.80
20574;DHT22;10445;50.216;7.912;2023-12-07T13:04:01;1.60;88.60
20574;DHT22;10445;50.216;7.912;2023-12-07T13:06:30;1.60;87.30
20574;DHT22;10445;50.216;7.912;2023-12-07T13:08:58;1.50;87.70
20574;DHT22;10445;50.216;7.912;2023-12-07T13:11:27;1.40;87.50
20574;DHT22;10445;50.216;7.912;2023-12-07T13:13:57;1.30;87.80
20574;DHT22;10445;50.216;7.912;2023-12-07T13:16:26;1.20;89.80
20574;DHT22;10445;50.216;7.912;2023-12-07T13:18:54;1.20;90.00
20574;DHT22;10445;50.216;7.912;2023-12-07T13:21:23;1.20;90.70
20574;DHT22;10445;50.216;7.912;2023-12-07T13:23:52;1.00;90.60
20574;DHT22;10445;50.216;7.912;2023-12-07T13:26:21;0.90;90.40
20574;DHT22;10445;50.216;7.912;2023-12-07T13:28:53;0.90;90.70
20574;DHT22;10445;50.216;7.912;2023-12-07T13:31:24;0.80;92.90
20574;DHT22;10445;50.216;7.912;2023-12-07T13:33:54;0.70;93.90
20574;DHT22;10445;50.216;7.912;2023-12-07T13:36:28;0.60;94.30
20574;DHT22;10445;50.216;7.912;2023-12-07T13:38:58;0.50;95.70
20574;DHT22;10445;50.216;7.912;2023-12-07T13:41:29;0.30;95.80
20574;DHT22;10445;50.216;7.912;2023-12-07T13:43:57;0.20;97.20
20574;DHT22;10445;50.216;7.912;2023-12-07T13:46:29;0.10;97.90
20574;DHT22;10445;50.216;7.912;2023-12-07T13:48:58;0.00;99.30
20574;DHT22;10445;50.216;7.912;2023-12-07T13:51:27;0.00;99.90
20574;DHT22;10445;50.216;7.912;2023-12-07T13:53:55;-0.10;99.90
20574;DHT22;10445;50.216;7.912;2023-12-07T13:56:27;0.00;99.90
20574;DHT22;10445;50.216;7.912;2023-12-07T13:58:55;0.00;99.90
20574;DHT22;10445;50.216;7.912;2023-12-07T14:01:24;0.00;99.90
20574;DHT22;10445;50.216;7.912;2023-12-07T14:03:55;-0.10;99.90
20574;DHT22;10445;50.216;7.912;2023-12-07T14:06:24;-0.10;99.90
20574;DHT22;10445;50.216;7.912;2023-12-07T14:08:55;-0.20;99.90
20574;DHT22;10445;50.216;7.912;2023-12-07T14:11:24;-0.10;99.90
20574;DHT22;10445;50.216;7.912;2023-12-07T14:13:52;-0.20;99.90
20574;DHT22;10445;50.216;7.912;2023-12-07T14:16:22;-0.30;99.90
20574;DHT22;10445;50.216;7.912;2023-12-07T14:19:11;-0.40;99.90
20574;DHT22;10445;50.216;7.912;2023-12-07T14:21:46;-0.50;99.90
20574;DHT22;10445;50.216;7.912;2023-12-07T14:24:23;-0.50;99.90
20574;DHT22;10445;50.216;7.912;2023-12-07T14:26:52;-0.50;99.90
20574;DHT22;10445;50.216;7.912;2023-12-07T14:29:20;-0.40;99.90
20574;DHT22;10445;50.216;7.912;2023-12-07T14:31:53;-0.40;99.90
20574;DHT22;10445;50.216;7.912;2023-12-07T14:34:24;-0.40;99.90
20574;DHT22;10445;50.216;7.912;2023-12-07T14:37:02;-0.40;99.90
20574;DHT22;10445;50.216;7.912;2023-12-07T14:39:34;-0.30;99.90
20574;DHT22;10445;50.216;7.912;2023-12-07T14:42:03;-0.30;99.40
20574;DHT22;10445;50.216;7.912;2023-12-07T14:44:33;-0.30;93.50
20574;DHT22;10445;50.216;7.912;2023-12-07T14:47:02;-0.20;91.70
20574;DHT22;10445;50.216;7.912;2023-12-07T14:49:31;-0.20;89.50
20574;DHT22;10445;50.216;7.912;2023-12-07T14:52:00;-0.10;86.80
20574;DHT22;10445;50.216;7.912;2023-12-07T14:54:28;-0.10;80.80
20574;DHT22;10445;50.216;7.912;2023-12-07T14:56:58;-0.10;76.80
20574;DHT22;10445;50.216;7.912;2023-12-07T14:59:28;-0.10;75.80
20574;DHT22;10445;50.216;7.912;2023-12-07T15:01:57;-0.10;75.20
20574;DHT22;10445;50.216;7.912;2023-12-07T15:04:27;-0.10;74.40
20574;DHT22;10445;50.216;7.912;2023-12-07T15:07:02;-0.10;75.40
20574;DHT22;10445;50.216;7.912;2023-12-07T15:09:33;-0.10;75.40
20574;DHT22;10445;50.216;7.912;2023-12-07T15:12:05;-0.10;77.50
20574;DHT22;10445;50.216;7.912;2023-12-07T15:14:34;-0.20;74.90
20574;DHT22;10445;50.216;7.912;2023-12-07T15:17:05;-0.20;76.70
20574;DHT22;10445;50.216;7.912;2023-12-07T15:19:36;-0.30;77.70
20574;DHT22;10445;50.216;7.912;2023-12-07T15:22:08;-0.30;78.90
20574;DHT22;10445;50.216;7.912;2023-12-07T15:24:36;-0.30;79.80
20574;DHT22;10445;50.216;7.912;2023-12-07T15:27:07;-0.40;78.40
20574;DHT22;10445;50.216;7.912;2023-12-07T15:29:36;-0.40;79.20
20574;DHT22;10445;50.216;7.912;2023-12-07T15:32:06;-0.50;80.70
20574;DHT22;10445;50.216;7.912;2023-12-07T15:34:36;-0.50;82.40
20574;DHT22;10445;50.216;7.912;2023-12-07T15:37:10;-0.50;83.50
20574;DHT22;10445;50.216;7.912;2023-12-07T15:39:41;-0.50;84.40
20574;DHT22;10445;50.216;7.912;2023-12-07T15:42:11;-0.50;86.80
20574;DHT22;10445;50.216;7.912;2023-12-07T15:44:40;-0.60;87.80
20574;DHT22;10445;50.216;7.912;2023-12-07T15:47:08;-0.60;88.30
20574;DHT22;10445;50.216;7.912;2023-12-07T15:49:37;-0.60;88.40
20574;DHT22;10445;50.216;7.912;2023-12-07T15:52:06;-0.60;88.70
20574;DHT22;10445;50.216;7.912;2023-12-07T15:54:36;-0.70;89.70
20574;DHT22;10445;50.216;7.912;2023-12-07T15:57:07;-0.70;89.90
20574;DHT22;10445;50.216;7.912;2023-12-07T15:59:38;-0.70;90.60